Saturday, November 18, 2017, 1:16 AM EST
Back to Local

KJFK, Kennedy International Airport

Location: Rosedale, NY, United States Lat: 40.633
Local Time: 1:16 AM EST ( 6:16 GMT) Lon: -73.767
Time Zone: US/Eastern Elev: 13 ft

Show me the last for .
Show Decoded

2017-11-18 00:51 METAR KJFK 180551Z 30007KT 10SM FEW250 03/M08 A3006 RMK AO2 SLP179 T00331083
                 10061 20028 58013 =
2017-11-17 23:51 METAR KJFK 180451Z 30008KT 10SM FEW250 04/M08 A3008 RMK AO2 SLP185 T00391083
                 400890033 =
2017-11-17 22:51 METAR KJFK 180351Z 30008KT 10SM FEW150 04/M08 A3009 RMK AO2 SLP188 T00391083 =
2017-11-17 21:51 METAR KJFK 180251Z 28006KT 10SM FEW250 04/M08 A3010 RMK AO2 SLP192 T00391083
                 53005 =
2017-11-17 20:51 METAR KJFK 180151Z 31009KT 10SM FEW250 04/M09 A3008 RMK AO2 SLP187 T00441089 =
2017-11-17 19:51 METAR KJFK 180051Z 31006KT 10SM FEW250 05/M09 A3010 RMK AO2 SLP191 T00501089 =
2017-11-17 18:51 METAR KJFK 172351Z 31011KT 10SM FEW250 06/M09 A3009 RMK AO2 SLP187 T00611089
                 10089 20056 51004 =
2017-11-17 17:51 METAR KJFK 172251Z 31014G22KT 10SM SCT250 07/M09 A3008 RMK AO2 SLP187 T00721094
                 =
2017-11-17 16:51 METAR KJFK 172151Z 30013G19KT 10SM FEW013 SCT250 08/M09 A3008 RMK AO2 SLP184 FU
                 FEW013 T00781089 =
2017-11-17 15:51 METAR KJFK 172051Z 31017KT 10SM SCT250 08/M09 A3007 RMK AO2 PK WND 29026/1958
                 SLP183 FU PLUME NW DRFTG SE T00831094 53005 =
2017-11-17 14:51 METAR KJFK 171951Z 30019G25KT 10SM SCT250 09/M08 A3006 RMK AO2 PK WND 29026/1939
                 SLP179 T00891078 =
2017-11-17 13:51 METAR KJFK 171851Z 30013G26KT 10SM FEW250 09/M06 A3006 RMK AO2 PK WND 27026/1848
                 SLP179 T00891061 =
2017-11-17 12:51 METAR KJFK 171751Z 29021G24KT 10SM FEW055 FEW250 08/M05 A3006 RMK AO2 PK WND
                 30026/1652 SLP178 T00831050 10083 20044 56011 =
2017-11-17 11:51 METAR KJFK 171651Z 29018G25KT 10SM FEW050 FEW250 08/M04 A3006 RMK AO2 PK WND
                 30027/1633 SLP179 T00781044 =
2017-11-17 10:51 METAR KJFK 171551Z 29018G23KT 10SM FEW050 07/M03 A3008 RMK AO2 PK WND 30029/1458
                 SLP184 T00721033 =
2017-11-17 09:51 METAR KJFK 171451Z 31021G26KT 10SM SCT044 06/M04 A3009 RMK AO2 PK WND 31026/1448
                 SLP189 T00611039 53024 =
2017-11-17 08:51 METAR KJFK 171351Z 30013G22KT 10SM SCT039 SCT047 06/M03 A3006 RMK AO2 PK WND
                 30031/1310 SLP177 T00561033 =
2017-11-17 07:51 METAR KJFK 171251Z 30021G29KT 10SM FEW045 04/M03 A3005 RMK AO2 PK WND 32030/1156
                 SLP174 T00441033 =
2017-11-17 06:51 METAR KJFK 171151Z 32021G29KT 10SM SCT047 04/M04 A3002 RMK AO2 PK WND 33033/1126
                 SLP165 70012 T00441039 10067 20044 51018 =
2017-11-17 05:51 METAR KJFK 171051Z 31018G27KT 10SM FEW047 04/M04 A3000 RMK AO2 PK WND 32029/1032
                 SLP160 T00441039 =
2017-11-17 04:51 METAR KJFK 170951Z 31019G25KT 10SM SCT047 06/M03 A2999 RMK AO2 PK WND 30031/0922
                 SLP154 T00561033 =
2017-11-17 03:51 METAR KJFK 170851Z 30025G31KT 10SM BKN047 06/M03 A2997 RMK AO2 PK WND 29031/0851
                 SLP147 T00611028 53013 =
2017-11-17 02:51 METAR KJFK 170751Z 29021G26KT 10SM FEW039 06/M01 A2995 RMK AO2 PK WND 29026/0751
                 SLP141 T00611011 =
2017-11-17 01:51 METAR KJFK 170651Z 31016KT 10SM FEW034 FEW060 06/M01 A2994 RMK AO2 PK WND
                 30028/0609 SLP137 T00611006 =

Support USWX by starting your Amazon purchase here.